イルクーツク の空港の天気 - METARとTAF

イルクーツク国際空港 ( UIII / IKT ) - ロシア イルクーツク
飛行場実況気象(Metar)
観測時間01/18 17:30 IRKT (01/18 09:30 UTC)
風向・風速北西 10m/s
視程10km以上
天気現象低い地吹雪
全天の4割程度の雲 雲底高度 1520m
気温-18℃
湿度50%
気圧1018hPa
METARUIII 180930Z 32010MPS 9999 DRSN SCT050CB M18/M26 Q1018 R30/820550 NOSIG RMK QFE719/0959
過去の天気等 Google飛行場航空写真 Wunderground天気予報

過去48時間のMETAR

飛行場予報(TAF)
発表時間: 1/18 16:00 IRKT (1/18 08:00 UTC)
予報対象時間: 18日17時 IRKT ~ 19日17時 IRKT
風向・風速西北西 8m/s 瞬間風速 13m/s
視程10km以上
天気現象低い地吹雪
全天の8割程度の積乱雲 雲底高度 460m
18日17時 IRKT ~ 18日23時 IRKT に一時的に
風向・風速北西 13m/s 瞬間風速 18m/s
視程2,000m
天気現象しゅう雪 高い地吹雪
18日23時 IRKT ~ 19日1時 IRKT に徐々に
風向・風速西北西 3m/s
天気現象運行に影響にある天気現象が終了
なし
TAF UIII 180800Z 1809/1909 30008G13MPS 9999 DRSN BKN015CB
TEMPO 1809/1815 32013G18MPS 2000 SHSN BLSN
BECMG 1815/1817 30003MPS NSW NSC